Time;durP1;ratioP1;P1;durP2;ratioP2;P2;SDS_P1;SDS_P2;PMS_P1;PMS_P2;Temp;Humidity;BMP_temperature;BMP_pressure;BME280_temperature;BME280_humidity;BME280_pressure;Samples;Min_cycle;Max_cycle;Signal;HPM_P1;HPM_P2
2021/04/19 00:02:09;;;;;;;16.92;14.05;;;10.20;60.90;;;;;;5114607;28;20130;-79
2021/04/19 00:04:36;;;;;;;18.83;13.18;;;10.20;61.00;;;;;;5063600;28;20065;-79
2021/04/19 00:07:02;;;;;;;16.05;12.80;;;10.20;61.00;;;;;;5079650;28;20075;-79
2021/04/19 00:09:28;;;;;;;15.95;13.60;;;10.20;61.20;;;;;;5080260;28;20134;-77
2021/04/19 00:11:54;;;;;;;20.27;13.13;;;10.10;61.30;;;;;;5096971;28;20071;-79
2021/04/19 00:14:20;;;;;;;17.30;13.43;;;10.10;61.30;;;;;;5079034;28;20047;-78
2021/04/19 00:16:45;;;;;;;15.98;12.38;;;10.10;61.50;;;;;;5096727;28;20039;-79
2021/04/19 00:19:11;;;;;;;16.88;12.85;;;10.00;61.50;;;;;;5095959;28;20043;-79
2021/04/19 00:21:37;;;;;;;14.68;12.63;;;10.00;61.60;;;;;;5097282;28;20040;-77
2021/04/19 00:24:03;;;;;;;16.55;12.80;;;10.00;61.70;;;;;;5096208;28;20101;-79
2021/04/19 00:26:29;;;;;;;15.18;12.70;;;10.00;61.80;;;;;;5096263;28;20040;-78
2021/04/19 00:28:54;;;;;;;19.17;13.05;;;10.00;61.90;;;;;;5096614;28;20445;-78
2021/04/19 00:31:23;;;;;;;17.98;12.90;;;9.90;61.90;;;;;;5062260;28;20075;-78
2021/04/19 00:33:49;;;;;;;20.17;14.98;;;9.90;61.90;;;;;;5079364;28;20043;-78
2021/04/19 00:36:14;;;;;;;16.92;13.70;;;9.90;62.10;;;;;;5078640;28;20050;-78
2021/04/19 00:38:41;;;;;;;20.85;14.52;;;9.90;62.20;;;;;;5079776;28;20036;-78
2021/04/19 00:41:06;;;;;;;17.55;13.88;;;9.90;62.30;;;;;;5078914;28;20506;-79
2021/04/19 00:43:32;;;;;;;19.52;15.18;;;9.80;62.40;;;;;;5062919;28;20395;-79
2021/04/19 00:46:04;;;;;;;18.90;13.95;;;9.80;62.30;;;;;;5062566;28;20131;-79
2021/04/19 00:48:31;;;;;;;19.27;13.55;;;9.80;62.30;;;;;;5080783;28;20093;-77
2021/04/19 00:50:57;;;;;;;16.65;13.25;;;9.80;62.40;;;;;;5062902;28;20044;-78
2021/04/19 00:53:24;;;;;;;17.13;14.25;;;9.80;62.50;;;;;;5095110;28;20402;-79
2021/04/19 00:55:51;;;;;;;17.30;13.65;;;9.70;62.50;;;;;;5061818;28;20047;-78
2021/04/19 00:58:17;;;;;;;20.48;15.20;;;9.70;62.60;;;;;;5094977;28;20540;-78
2021/04/19 01:00:43;;;;;;;18.88;15.15;;;9.70;62.60;;;;;;5079259;28;20093;-79
2021/04/19 01:03:08;;;;;;;16.50;13.55;;;9.70;62.60;;;;;;5045151;28;20051;-78
2021/04/19 01:05:36;;;;;;;17.88;13.25;;;9.60;62.70;;;;;;5078562;28;20112;-78
2021/04/19 01:08:02;;;;;;;17.77;14.15;;;9.70;62.80;;;;;;5078862;28;20114;-79
2021/04/19 01:10:28;;;;;;;16.52;13.90;;;9.60;62.80;;;;;;5078236;28;20127;-79
2021/04/19 01:12:53;;;;;;;18.25;14.00;;;9.60;62.80;;;;;;5061711;28;20487;-78
2021/04/19 01:15:19;;;;;;;16.90;13.50;;;9.60;62.90;;;;;;5077846;28;20039;-78
2021/04/19 01:17:45;;;;;;;17.88;13.85;;;9.60;62.90;;;;;;5061924;28;20128;-79
2021/04/19 01:20:16;;;;;;;16.80;14.20;;;9.60;62.90;;;;;;5094768;28;20395;-79
2021/04/19 01:22:42;;;;;;;17.38;13.20;;;9.50;63.00;;;;;;5079301;28;20035;-78
2021/04/19 01:25:10;;;;;;;17.48;12.32;;;9.50;63.00;;;;;;5061243;28;20518;-78
2021/04/19 01:27:36;;;;;;;18.15;14.10;;;9.50;63.10;;;;;;5061605;28;20045;-78
2021/04/19 01:30:05;;;;;;;17.60;13.65;;;9.50;63.30;;;;;;5095460;28;20047;-78
2021/04/19 01:32:32;;;;;;;15.43;13.38;;;9.50;63.30;;;;;;5077617;28;20043;-78
2021/04/19 01:34:58;;;;;;;16.65;13.35;;;9.50;63.20;;;;;;5094708;28;20126;-78
2021/04/19 01:37:24;;;;;;;17.50;13.20;;;9.50;63.20;;;;;;5077617;28;20048;-78
2021/04/19 01:39:50;;;;;;;17.23;14.32;;;9.50;63.30;;;;;;5113166;28;20123;-78
2021/04/19 01:42:16;;;;;;;15.43;13.60;;;9.50;63.50;;;;;;5044173;28;20043;-78
2021/04/19 01:44:42;;;;;;;17.00;13.48;;;9.50;63.60;;;;;;5078022;28;20442;-78
2021/04/19 01:47:07;;;;;;;19.23;14.40;;;9.50;63.70;;;;;;5078144;28;20049;-77
2021/04/19 01:49:33;;;;;;;15.93;13.48;;;9.50;63.70;;;;;;5077188;28;20036;-78
2021/04/19 01:52:01;;;;;;;16.10;13.00;;;9.50;63.80;;;;;;5094885;28;20401;-78
2021/04/19 01:54:27;;;;;;;16.75;14.40;;;9.50;63.80;;;;;;5093920;28;20089;-79
2021/04/19 01:56:53;;;;;;;16.65;13.98;;;9.50;63.90;;;;;;5094929;28;20039;-78
2021/04/19 01:59:19;;;;;;;17.20;14.07;;;9.50;63.90;;;;;;5077165;28;20119;-80
2021/04/19 02:02:14;;;;;;;17.85;14.68;;;9.50;64.00;;;;;;5077873;28;20455;-79
2021/04/19 02:05:14;;;;;;;20.15;14.30;;;9.50;64.50;;;;;;5081769;28;20073;-77
2021/04/19 02:08:06;;;;;;;15.23;13.40;;;9.50;64.40;;;;;;5053350;28;20043;-79
2021/04/19 02:10:37;;;;;;;18.05;14.15;;;9.50;64.60;;;;;;5102895;28;20048;-78
2021/04/19 02:13:10;;;;;;;18.20;14.30;;;9.50;64.10;;;;;;5066355;28;20064;-77
2021/04/19 02:15:49;;;;;;;16.70;13.90;;;9.50;64.30;;;;;;5052613;28;20044;-78
2021/04/19 02:18:22;;;;;;;19.75;14.00;;;9.50;64.50;;;;;;5071812;28;20042;-79
2021/04/19 02:20:55;;;;;;;16.38;14.30;;;9.50;64.30;;;;;;5067973;28;20063;-78
2021/04/19 02:23:29;;;;;;;19.73;15.43;;;9.50;64.40;;;;;;5068847;28;20032;-78
2021/04/19 02:26:02;;;;;;;18.95;14.27;;;9.50;64.50;;;;;;5084354;28;20036;-78
2021/04/19 02:28:31;;;;;;;21.40;15.50;;;9.50;64.50;;;;;;5065909;28;20102;-78
2021/04/19 02:31:00;;;;;;;18.58;14.38;;;9.40;64.40;;;;;;5054533;28;20485;-78
2021/04/19 02:33:29;;;;;;;18.20;13.98;;;9.40;64.30;;;;;;5076549;28;20044;-78
2021/04/19 02:35:55;;;;;;;19.00;13.63;;;9.40;64.30;;;;;;5077255;28;20051;-78
2021/04/19 02:38:27;;;;;;;17.45;15.57;;;9.50;64.30;;;;;;5064177;28;20058;-78
2021/04/19 02:40:55;;;;;;;17.58;14.27;;;9.50;64.50;;;;;;5080369;28;20074;-79
2021/04/19 02:43:22;;;;;;;18.95;15.32;;;9.50;64.50;;;;;;5063904;28;20043;-79
2021/04/19 02:45:49;;;;;;;16.52;14.43;;;9.40;64.70;;;;;;5079896;28;20049;-77
2021/04/19 02:48:14;;;;;;;19.00;15.43;;;9.50;64.80;;;;;;5047511;28;20083;-78
2021/04/19 02:50:40;;;;;;;21.20;16.52;;;9.40;64.80;;;;;;5081711;28;20043;-79
2021/04/19 02:53:06;;;;;;;17.45;14.68;;;9.40;64.90;;;;;;5082143;28;20040;-78
2021/04/19 02:55:32;;;;;;;18.77;14.75;;;9.50;64.80;;;;;;5064826;28;20471;-78
2021/04/19 02:58:02;;;;;;;18.90;16.30;;;9.50;64.90;;;;;;5082158;28;20048;-78
2021/04/19 03:00:31;;;;;;;18.35;15.98;;;9.50;64.80;;;;;;5082290;28;20036;-79
2021/04/19 03:02:57;;;;;;;17.52;15.15;;;9.50;64.90;;;;;;5081943;28;20381;-78
2021/04/19 03:05:23;;;;;;;19.38;14.98;;;9.40;65.00;;;;;;5065536;28;20069;-78
2021/04/19 03:08:02;;;;;;;19.50;15.90;;;9.50;65.00;;;;;;5081772;28;20143;-78
2021/04/19 03:10:30;;;;;;;18.55;14.55;;;9.50;65.40;;;;;;5064854;28;20120;-80
2021/04/19 03:12:56;;;;;;;19.88;14.90;;;9.50;65.00;;;;;;5065287;28;20039;-77
2021/04/19 03:15:24;;;;;;;19.08;14.48;;;9.50;65.10;;;;;;5065198;28;20077;-79
2021/04/19 03:17:50;;;;;;;20.80;15.68;;;9.50;65.00;;;;;;5065044;28;20082;-79
2021/04/19 03:20:27;;;;;;;19.67;14.75;;;9.50;65.20;;;;;;5083891;28;20040;-79
2021/04/19 03:22:53;;;;;;;21.27;15.43;;;9.50;65.30;;;;;;5070222;28;20081;-78
2021/04/19 03:25:19;;;;;;;19.13;14.75;;;9.60;65.40;;;;;;5085846;28;20047;-78
2021/04/19 03:27:48;;;;;;;16.60;14.18;;;9.50;65.60;;;;;;5085545;28;20055;-78
2021/04/19 03:30:14;;;;;;;18.20;15.73;;;9.60;65.90;;;;;;5069266;28;20046;-78
2021/04/19 03:32:44;;;;;;;18.45;15.38;;;9.50;65.60;;;;;;5085029;28;20341;-78
2021/04/19 03:35:13;;;;;;;18.60;15.00;;;9.50;65.80;;;;;;5069661;28;20071;-78
2021/04/19 03:37:40;;;;;;;20.95;16.23;;;9.50;65.90;;;;;;5068788;28;20040;-79
2021/04/19 03:40:13;;;;;;;19.67;14.77;;;9.50;65.80;;;;;;5086222;28;20389;-78
2021/04/19 03:42:39;;;;;;;19.92;16.73;;;9.50;65.90;;;;;;5083866;28;20040;-78
2021/04/19 03:45:07;;;;;;;18.00;16.00;;;9.50;66.00;;;;;;5067007;28;20481;-78
2021/04/19 03:47:33;;;;;;;17.63;14.77;;;9.50;66.10;;;;;;5084847;28;20043;-79
2021/04/19 03:49:59;;;;;;;19.08;16.05;;;9.50;66.00;;;;;;5085774;28;20044;-78
2021/04/19 03:52:28;;;;;;;19.42;17.38;;;9.60;66.10;;;;;;5068328;28;20373;-78
2021/04/19 03:54:54;;;;;;;19.83;15.00;;;9.60;66.10;;;;;;5085336;28;20403;-78
2021/04/19 03:57:23;;;;;;;20.77;15.63;;;9.50;66.10;;;;;;5068748;28;20040;-78
2021/04/19 03:59:54;;;;;;;20.70;14.85;;;9.50;66.40;;;;;;5068759;28;20046;-78
2021/04/19 04:02:21;;;;;;;19.17;15.45;;;9.60;66.40;;;;;;5053424;28;20377;-78
2021/04/19 04:04:47;;;;;;;18.48;15.05;;;9.50;66.40;;;;;;5085933;28;20051;-78
2021/04/19 04:07:12;;;;;;;17.58;15.43;;;9.60;66.40;;;;;;5069945;28;20043;-77
2021/04/19 04:09:39;;;;;;;20.23;16.15;;;9.60;66.30;;;;;;5069705;28;20533;-79
2021/04/19 04:12:05;;;;;;;17.38;14.80;;;9.60;66.50;;;;;;5085895;28;20052;-79
2021/04/19 04:14:31;;;;;;;18.85;15.93;;;9.60;66.70;;;;;;5085874;28;20032;-78
2021/04/19 04:16:57;;;;;;;20.48;16.63;;;9.60;66.70;;;;;;5085191;28;20054;-78
2021/04/19 04:19:23;;;;;;;19.23;16.33;;;9.60;66.70;;;;;;5069027;28;20040;-78
2021/04/19 04:21:48;;;;;;;18.75;16.45;;;9.70;66.80;;;;;;5086143;28;20472;-79
2021/04/19 04:24:14;;;;;;;17.90;16.00;;;9.70;67.70;;;;;;5070036;28;20043;-78
2021/04/19 04:26:40;;;;;;;18.08;15.68;;;9.70;66.90;;;;;;5086214;28;20131;-78
2021/04/19 04:29:06;;;;;;;17.20;14.75;;;9.70;66.90;;;;;;5103767;28;20049;-78
2021/04/19 04:31:31;;;;;;;19.92;15.65;;;9.60;66.80;;;;;;5086362;28;20533;-79
2021/04/19 04:33:57;;;;;;;18.10;15.27;;;9.70;67.00;;;;;;5085217;28;20127;-79
2021/04/19 04:36:23;;;;;;;18.73;15.23;;;9.70;67.20;;;;;;5069464;28;20051;-78
2021/04/19 04:38:49;;;;;;;21.05;16.77;;;9.70;67.00;;;;;;5085359;28;20051;-78
2021/04/19 04:41:15;;;;;;;21.55;16.73;;;9.70;67.20;;;;;;5066247;28;20400;-78
2021/04/19 04:43:42;;;;;;;19.00;16.00;;;9.80;67.30;;;;;;5082557;28;20068;-79
2021/04/19 04:46:21;;;;;;;17.30;14.88;;;9.70;67.30;;;;;;5082795;28;20055;-78
2021/04/19 04:48:52;;;;;;;19.05;14.75;;;9.70;67.30;;;;;;5067101;28;20055;-78
2021/04/19 04:51:19;;;;;;;20.20;15.98;;;9.70;67.40;;;;;;5082975;28;20518;-78
2021/04/19 04:53:50;;;;;;;18.58;15.20;;;9.70;67.20;;;;;;5063376;28;20070;-79
2021/04/19 04:56:16;;;;;;;22.10;15.90;;;9.70;67.30;;;;;;5057554;28;20032;-79
2021/04/19 04:58:42;;;;;;;20.77;14.90;;;9.80;67.40;;;;;;5086086;28;20062;-79
2021/04/19 05:01:08;;;;;;;17.70;14.93;;;9.80;67.50;;;;;;5037472;28;20052;-78
2021/04/19 05:03:37;;;;;;;18.48;15.30;;;9.80;67.50;;;;;;5067918;28;20047;-78
2021/04/19 05:06:03;;;;;;;19.40;15.68;;;9.70;67.60;;;;;;5077067;28;20522;-79
2021/04/19 05:08:29;;;;;;;19.90;15.35;;;9.80;67.80;;;;;;5073784;28;20036;-78
2021/04/19 05:10:57;;;;;;;18.45;14.90;;;9.80;67.70;;;;;;5054924;28;20070;-79
2021/04/19 05:13:23;;;;;;;16.52;14.07;;;9.90;67.70;;;;;;5097268;28;20146;-77
2021/04/19 05:15:49;;;;;;;17.80;15.18;;;9.90;67.60;;;;;;5070374;28;20048;-79
2021/04/19 05:18:18;;;;;;;19.13;15.02;;;9.80;67.60;;;;;;5066944;28;20086;-78
2021/04/19 05:20:45;;;;;;;20.75;16.33;;;9.90;67.70;;;;;;5054051;28;20163;-79
2021/04/19 05:23:11;;;;;;;17.75;15.02;;;9.90;68.00;;;;;;5102109;28;20089;-78
2021/04/19 05:25:37;;;;;;;16.60;14.82;;;9.90;68.00;;;;;;5084225;28;20039;-79
2021/04/19 05:28:03;;;;;;;17.60;13.77;;;9.90;68.20;;;;;;5047719;28;20879;-78
2021/04/19 05:30:29;;;;;;;18.42;14.55;;;10.00;68.30;;;;;;5082194;28;20142;-78
2021/04/19 05:32:57;;;;;;;16.77;14.57;;;10.00;68.50;;;;;;5093783;28;20114;-87
2021/04/19 05:35:22;;;;;;;17.77;15.30;;;10.00;68.50;;;;;;5042928;28;20126;-86
2021/04/19 05:37:52;;;;;;;17.65;14.32;;;10.00;68.50;;;;;;5041922;28;20060;-82
2021/04/19 05:40:20;;;;;;;19.95;14.98;;;10.00;68.70;;;;;;5045971;28;20085;-86
2021/04/19 05:42:48;;;;;;;9.48;7.70;;;10.10;68.50;;;;;;5048981;28;20043;-90
2021/04/19 05:45:18;;;;;;;14.60;9.85;;;10.40;69.30;;;;;;5044872;28;20060;-89
2021/04/19 05:47:50;;;;;;;15.32;12.85;;;10.60;69.00;;;;;;5013502;28;20129;-89
2021/04/19 05:50:17;;;;;;;19.95;14.40;;;10.60;67.90;;;;;;5015967;28;20397;-88
2021/04/19 05:52:44;;;;;;;15.32;13.68;;;10.60;67.60;;;;;;5062712;28;20448;-85
2021/04/19 05:55:10;;;;;;;17.00;13.50;;;10.60;67.80;;;;;;5030696;28;20036;-78
2021/04/19 05:57:54;;;;;;;16.90;13.63;;;10.50;67.80;;;;;;5043539;28;20151;-80
2021/04/19 06:00:33;;;;;;;18.10;13.25;;;10.40;67.60;;;;;;5036873;28;20052;-80
2021/04/19 06:03:17;;;;;;;14.48;12.93;;;10.40;67.60;;;;;;5038338;28;20078;-79
2021/04/19 06:06:12;;;;;;;14.60;12.98;;;10.40;67.90;;;;;;5071759;28;20032;-80
2021/04/19 06:08:50;;;;;;;16.63;13.30;;;10.40;68.00;;;;;;5055076;28;20397;-81
2021/04/19 06:11:20;;;;;;;14.30;12.05;;;10.40;68.10;;;;;;5069099;28;20044;-82
2021/04/19 06:13:46;;;;;;;17.20;12.73;;;10.40;68.10;;;;;;5024997;28;20068;-86
2021/04/19 06:16:12;;;;;;;9.57;8.10;;;10.40;68.10;;;;;;5044322;28;20036;-87
2021/04/19 06:18:39;;;;;;;12.60;10.60;;;10.40;68.60;;;;;;5039903;28;20059;-83
2021/04/19 06:21:05;;;;;;;14.98;12.57;;;10.80;69.80;;;;;;5038467;28;20063;-81
2021/04/19 06:23:39;;;;;;;16.52;14.02;;;10.80;68.60;;;;;;5046956;28;20040;-87
2021/04/19 06:26:09;;;;;;;18.45;15.05;;;10.80;68.10;;;;;;5045172;28;20040;-88
2021/04/19 06:28:36;;;;;;;18.77;13.65;;;10.80;68.00;;;;;;5095483;28;20056;-89
2021/04/19 06:31:03;;;;;;;17.27;13.52;;;10.70;68.20;;;;;;5077763;28;20576;-85
2021/04/19 06:33:30;;;;;;;18.27;13.88;;;10.70;68.20;;;;;;5059755;28;20067;-85
2021/04/19 06:35:56;;;;;;;11.57;9.57;;;10.60;68.20;;;;;;5091205;28;20052;-86
2021/04/19 06:38:22;;;;;;;17.50;13.57;;;10.80;69.50;;;;;;5035445;28;20053;-82
2021/04/19 06:40:50;;;;;;;17.45;13.48;;;10.90;68.80;;;;;;5053430;28;20511;-80
2021/04/19 06:43:15;;;;;;;18.38;13.63;;;10.80;68.70;;;;;;5083034;28;20060;-78
2021/04/19 06:45:45;;;;;;;18.67;14.43;;;10.80;68.70;;;;;;5040185;28;20127;-79
2021/04/19 06:48:11;;;;;;;16.83;14.50;;;10.80;68.90;;;;;;5059424;28;20037;-79
2021/04/19 06:50:38;;;;;;;16.75;14.20;;;10.70;68.70;;;;;;5023833;28;20449;-80
2021/04/19 06:53:08;;;;;;;15.32;13.73;;;10.70;69.40;;;;;;5050874;28;20060;-81
2021/04/19 06:55:36;;;;;;;16.48;13.48;;;10.60;68.60;;;;;;5084630;28;20131;-81
2021/04/19 06:58:02;;;;;;;17.58;13.48;;;10.70;68.90;;;;;;5059826;28;20093;-80
2021/04/19 07:00:32;;;;;;;18.00;14.45;;;10.60;68.90;;;;;;5075481;28;20480;-81
2021/04/19 07:02:59;;;;;;;19.80;15.48;;;10.70;68.90;;;;;;5076355;28;20438;-82
2021/04/19 07:05:29;;;;;;;21.58;15.77;;;10.60;69.40;;;;;;5040119;28;20044;-83
2021/04/19 07:08:15;;;;;;;19.85;14.60;;;10.70;69.40;;;;;;5072114;28;20048;-79
2021/04/19 07:10:41;;;;;;;20.92;16.50;;;10.70;69.30;;;;;;5070952;28;20053;-80
2021/04/19 07:13:09;;;;;;;17.95;15.52;;;10.70;69.10;;;;;;5055278;28;20041;-77
2021/04/19 07:15:42;;;;;;;19.08;16.63;;;10.70;69.10;;;;;;5060802;28;20047;-81
2021/04/19 07:18:08;;;;;;;17.05;15.13;;;10.70;69.70;;;;;;5070528;28;20048;-79
2021/04/19 07:20:36;;;;;;;20.50;16.23;;;10.70;69.40;;;;;;5055604;28;20067;-78
2021/04/19 07:23:02;;;;;;;18.55;15.32;;;10.70;70.00;;;;;;5039709;28;20056;-82
2021/04/19 07:25:28;;;;;;;22.13;16.15;;;10.70;70.00;;;;;;5055805;28;20113;-82
2021/04/19 07:28:03;;;;;;;17.30;15.27;;;10.80;70.20;;;;;;5056448;28;20040;-80
2021/04/19 07:30:28;;;;;;;17.30;15.50;;;10.80;70.10;;;;;;5056188;28;20557;-80
2021/04/19 07:32:54;;;;;;;22.17;16.20;;;10.80;70.20;;;;;;5072351;28;20127;-80
2021/04/19 07:35:30;;;;;;;19.27;16.63;;;10.90;70.30;;;;;;5071626;28;20060;-78
2021/04/19 07:38:03;;;;;;;16.70;14.95;;;10.90;70.30;;;;;;5055324;28;20522;-79
2021/04/19 07:40:31;;;;;;;22.33;16.15;;;10.90;70.80;;;;;;5071917;28;20045;-82
2021/04/19 07:43:13;;;;;;;21.08;16.95;;;11.00;71.20;;;;;;5022880;28;20048;-81
2021/04/19 07:45:43;;;;;;;18.17;15.80;;;11.00;71.50;;;;;;5063115;28;20055;-81
2021/04/19 07:48:48;;;;;;;19.50;16.60;;;11.10;71.30;;;;;;5048002;28;20286;-85
2021/04/19 07:51:23;;;;;;;18.20;16.17;;;11.20;71.80;;;;;;5084378;28;20044;-81
2021/04/19 07:53:53;;;;;;;21.92;17.13;;;11.20;71.80;;;;;;5069907;28;20401;-81
2021/04/19 07:56:22;;;;;;;21.58;17.27;;;11.20;71.30;;;;;;5052403;28;20059;-80
2021/04/19 07:58:56;;;;;;;19.13;16.00;;;11.20;71.50;;;;;;5044653;28;20056;-82
2021/04/19 08:01:42;;;;;;;20.00;16.35;;;11.30;71.50;;;;;;5053574;28;20045;-82
2021/04/19 08:04:08;;;;;;;22.83;18.98;;;11.30;71.50;;;;;;5073052;28;20040;-84
2021/04/19 08:06:51;;;;;;;18.45;16.65;;;11.40;71.80;;;;;;5048361;28;20041;-81
2021/04/19 08:09:25;;;;;;;9.85;8.73;;;11.50;71.50;;;;;;5063902;28;20128;-81
2021/04/19 08:11:58;;;;;;;12.65;9.05;;;11.70;71.60;;;;;;5060701;28;20139;-80
2021/04/19 08:14:31;;;;;;;16.05;12.20;;;12.00;71.20;;;;;;5042685;28;20554;-81
2021/04/19 08:17:07;;;;;;;18.35;14.32;;;12.30;70.80;;;;;;5059091;28;20119;-77
2021/04/19 08:19:34;;;;;;;16.77;13.98;;;12.50;70.30;;;;;;5089699;28;20039;-84
2021/04/19 08:22:19;;;;;;;16.27;14.38;;;12.70;69.50;;;;;;5059725;28;20054;-85
2021/04/19 08:24:46;;;;;;;16.73;15.02;;;12.80;69.30;;;;;;5062024;28;20177;-87
2021/04/19 08:27:22;;;;;;;16.55;14.48;;;12.90;68.70;;;;;;5071386;28;20044;-86
2021/04/19 08:29:49;;;;;;;16.30;14.52;;;13.10;68.40;;;;;;5055109;28;20052;-78
2021/04/19 08:32:26;;;;;;;16.00;14.30;;;13.10;67.90;;;;;;5071057;28;20044;-80
2021/04/19 08:34:52;;;;;;;19.70;15.45;;;13.20;67.60;;;;;;5055274;28;20140;-80
2021/04/19 08:37:22;;;;;;;16.90;14.85;;;13.30;67.30;;;;;;5054907;28;20101;-79
2021/04/19 08:39:58;;;;;;;17.55;15.32;;;13.40;67.00;;;;;;5071122;28;20040;-78
2021/04/19 08:42:24;;;;;;;17.45;15.63;;;13.40;66.80;;;;;;5071135;28;20051;-81
2021/04/19 08:44:52;;;;;;;15.68;14.07;;;13.50;66.60;;;;;;5055372;28;20408;-80
2021/04/19 08:47:19;;;;;;;16.67;14.82;;;13.60;66.40;;;;;;5054672;28;20090;-80
2021/04/19 08:49:46;;;;;;;16.23;14.57;;;13.60;66.20;;;;;;5071081;28;20103;-78
2021/04/19 08:52:15;;;;;;;16.00;13.88;;;13.70;66.00;;;;;;5055787;28;20053;-81
2021/04/19 08:54:41;;;;;;;13.45;11.93;;;13.70;65.80;;;;;;5051358;28;20110;-77
2021/04/19 08:57:07;;;;;;;13.40;11.30;;;13.80;65.80;;;;;;5070381;28;20045;-77
2021/04/19 08:59:32;;;;;;;16.92;12.70;;;13.90;65.60;;;;;;5063177;28;20706;-77
2021/04/19 09:01:58;;;;;;;13.48;12.07;;;14.00;65.50;;;;;;5079412;28;20116;-77
2021/04/19 09:04:24;;;;;;;14.50;12.00;;;14.00;65.30;;;;;;5072869;28;20083;-77
2021/04/19 09:06:51;;;;;;;13.65;11.63;;;14.00;65.10;;;;;;5065533;28;20395;-76
2021/04/19 09:09:32;;;;;;;14.35;12.73;;;14.20;65.00;;;;;;5081769;28;20036;-78
2021/04/19 09:12:10;;;;;;;16.52;14.73;;;14.20;64.80;;;;;;5099176;28;20044;-77
2021/04/19 09:14:45;;;;;;;14.30;12.82;;;14.20;64.60;;;;;;5092342;28;20032;-77
2021/04/19 09:17:12;;;;;;;14.20;10.82;;;14.20;64.50;;;;;;5071391;28;20052;-76
2021/04/19 09:19:38;;;;;;;13.55;12.00;;;14.30;64.50;;;;;;5028527;28;20149;-77
2021/04/19 09:22:08;;;;;;;13.45;12.05;;;14.40;64.40;;;;;;5045448;28;20094;-77
2021/04/19 09:24:59;;;;;;;15.05;13.55;;;14.40;64.20;;;;;;5045321;28;20056;-76
2021/04/19 09:27:44;;;;;;;14.35;12.85;;;14.50;63.90;;;;;;5029511;28;20076;-76
2021/04/19 09:30:29;;;;;;;15.00;12.50;;;14.50;63.70;;;;;;5078177;28;20505;-76
2021/04/19 09:33:04;;;;;;;17.23;13.20;;;14.50;63.70;;;;;;5079567;28;20047;-76
2021/04/19 09:35:39;;;;;;;16.35;13.38;;;14.60;63.60;;;;;;5077638;28;20070;-77
2021/04/19 09:38:11;;;;;;;15.82;13.50;;;14.70;63.60;;;;;;5061745;28;20068;-77
2021/04/19 09:40:51;;;;;;;15.25;13.20;;;14.80;63.60;;;;;;5045438;28;20049;-77
2021/04/19 09:43:42;;;;;;;14.25;12.68;;;14.90;63.40;;;;;;5045312;28;20047;-77
2021/04/19 09:46:18;;;;;;;15.02;13.48;;;14.90;63.00;;;;;;5061021;28;20036;-74
2021/04/19 09:48:47;;;;;;;15.65;14.05;;;15.00;62.80;;;;;;5077160;28;20068;-75
2021/04/19 09:51:19;;;;;;;16.90;15.13;;;15.00;62.60;;;;;;5060947;28;20120;-77
2021/04/19 09:53:54;;;;;;;17.98;16.38;;;15.00;62.50;;;;;;5034543;28;20531;-77
2021/04/19 09:56:24;;;;;;;18.75;16.77;;;14.90;62.30;;;;;;5078977;28;20044;-77
2021/04/19 09:58:50;;;;;;;17.30;15.70;;;14.90;62.90;;;;;;5061961;28;20052;-76
2021/04/19 10:01:18;;;;;;;17.08;15.38;;;15.00;63.10;;;;;;5046287;28;20141;-75
2021/04/19 10:03:48;;;;;;;16.75;15.05;;;15.10;63.00;;;;;;5079885;28;20077;-77
2021/04/19 10:06:14;;;;;;;16.20;14.23;;;15.20;63.10;;;;;;5046916;28;20036;-76
2021/04/19 10:08:41;;;;;;;16.02;14.52;;;15.30;63.30;;;;;;5061898;28;20044;-77
2021/04/19 10:11:06;;;;;;;15.77;14.18;;;15.40;62.90;;;;;;5062288;28;20044;-74
2021/04/19 10:13:33;;;;;;;17.80;15.93;;;15.40;62.00;;;;;;5061641;28;20058;-75
2021/04/19 10:16:11;;;;;;;16.35;14.82;;;15.40;61.70;;;;;;5062800;28;20048;-76
2021/04/19 10:18:40;;;;;;;17.27;15.57;;;15.40;61.60;;;;;;5078455;28;20039;-75
2021/04/19 10:21:06;;;;;;;16.65;14.95;;;15.30;61.60;;;;;;5059109;28;20408;-77
2021/04/19 10:23:38;;;;;;;9.18;7.25;;;15.30;61.40;;;;;;5059253;28;20036;-84
2021/04/19 10:26:04;;;;;;;16.42;14.73;;;15.40;61.60;;;;;;5072766;28;20147;-80
2021/04/19 10:28:32;;;;;;;16.67;14.55;;;15.50;61.00;;;;;;5054222;28;20057;-77
2021/04/19 10:31:07;;;;;;;16.63;14.88;;;15.40;60.60;;;;;;5056566;28;20073;-83
2021/04/19 10:33:33;;;;;;;15.27;13.70;;;15.30;60.10;;;;;;5071442;28;20043;-85
2021/04/19 10:35:59;;;;;;;14.70;13.13;;;15.40;60.40;;;;;;5054101;28;20051;-82
2021/04/19 10:38:28;;;;;;;17.63;13.70;;;15.30;60.20;;;;;;5065446;28;20563;-77
2021/04/19 10:41:00;;;;;;;14.00;12.60;;;15.30;60.10;;;;;;5088104;28;20480;-78
2021/04/19 10:43:29;;;;;;;14.73;13.25;;;15.30;60.10;;;;;;5070718;28;20044;-77
2021/04/19 10:45:54;;;;;;;15.90;14.32;;;15.30;60.10;;;;;;5065792;28;20048;-79
2021/04/19 10:48:25;;;;;;;16.33;14.65;;;15.40;60.50;;;;;;5054466;28;20052;-77
2021/04/19 10:51:13;;;;;;;16.13;14.45;;;15.40;60.20;;;;;;5080121;28;20115;-78
2021/04/19 10:53:40;;;;;;;16.05;13.95;;;15.40;60.30;;;;;;5077085;28;20411;-74
2021/04/19 10:56:06;;;;;;;16.52;13.70;;;15.30;60.10;;;;;;5075758;28;20047;-77
2021/04/19 10:58:33;;;;;;;14.43;12.93;;;15.40;60.10;;;;;;5110691;28;20040;-85
2021/04/19 11:00:59;;;;;;;14.50;13.00;;;15.40;60.40;;;;;;5052609;28;20036;-78
2021/04/19 11:03:33;;;;;;;15.40;13.80;;;15.40;60.20;;;;;;5021695;28;20066;-77
2021/04/19 11:06:01;;;;;;;15.18;13.43;;;15.40;60.00;;;;;;5057969;28;20468;-77
2021/04/19 11:08:53;;;;;;;16.05;13.90;;;15.40;59.80;;;;;;5055300;28;20062;-78
2021/04/19 11:11:30;;;;;;;16.13;13.55;;;15.40;59.90;;;;;;5071650;28;20143;-76
2021/04/19 11:14:20;;;;;;;15.27;13.68;;;15.70;61.70;;;;;;5038292;28;20047;-77
2021/04/19 11:16:56;;;;;;;15.23;13.80;;;16.00;62.70;;;;;;5070573;28;20097;-80
2021/04/19 11:19:31;;;;;;;15.27;13.75;;;16.20;61.60;;;;;;5072969;28;20519;-76
2021/04/19 11:21:57;;;;;;;14.48;13.05;;;16.40;60.20;;;;;;5069703;28;20047;-76
2021/04/19 11:24:37;;;;;;;15.98;13.27;;;16.60;60.00;;;;;;5104399;28;20048;-74
2021/04/19 11:27:07;;;;;;;11.27;10.18;;;16.80;59.60;;;;;;5040144;28;20046;-76
2021/04/19 11:29:40;;;;;;;12.90;11.60;;;17.10;59.30;;;;;;5106977;28;20051;-75
2021/04/19 11:32:07;;;;;;;14.43;12.93;;;17.40;58.90;;;;;;5088644;28;20114;-76
2021/04/19 11:34:37;;;;;;;15.50;14.00;;;17.70;58.00;;;;;;5102790;28;20056;-77
2021/04/19 11:37:04;;;;;;;15.40;12.85;;;17.90;57.50;;;;;;5069543;28;20071;-78
2021/04/19 11:39:37;;;;;;;14.98;13.60;;;18.00;56.70;;;;;;5058428;28;20040;-79
2021/04/19 11:42:04;;;;;;;14.10;12.70;;;18.20;55.90;;;;;;5067371;28;20089;-77
2021/04/19 11:44:47;;;;;;;13.45;12.05;;;18.40;55.50;;;;;;5071615;28;20047;-85
2021/04/19 11:47:15;;;;;;;11.70;10.30;;;18.70;54.90;;;;;;5091125;28;20036;-88
2021/04/19 11:49:41;;;;;;;13.18;11.43;;;19.00;54.90;;;;;;5056798;28;20063;-85
2021/04/19 11:52:06;;;;;;;14.88;13.40;;;19.30;54.80;;;;;;5035589;28;20499;-85
2021/04/19 11:54:33;;;;;;;13.70;12.35;;;19.60;53.40;;;;;;5058837;28;20415;-87
2021/04/19 11:56:58;;;;;;;14.38;12.98;;;19.80;52.60;;;;;;5107740;28;20118;-78
2021/04/19 11:59:24;;;;;;;12.63;11.38;;;20.00;51.80;;;;;;5107612;28;20051;-82
2021/04/19 12:01:50;;;;;;;15.85;13.07;;;20.20;50.80;;;;;;5075001;28;20044;-83
2021/04/19 12:04:16;;;;;;;15.95;13.65;;;20.30;50.50;;;;;;5048045;28;20403;-78
2021/04/19 12:06:42;;;;;;;14.15;12.75;;;20.40;50.10;;;;;;5065027;28;20073;-78
2021/04/19 12:09:07;;;;;;;15.57;13.65;;;20.50;49.60;;;;;;5060979;28;20044;-81
2021/04/19 12:11:33;;;;;;;16.85;14.63;;;20.50;49.30;;;;;;5109069;28;20396;-84
2021/04/19 12:14:01;;;;;;;14.73;13.32;;;20.40;49.10;;;;;;5060853;28;20472;-82
2021/04/19 12:16:27;;;;;;;14.90;13.30;;;20.30;48.90;;;;;;5075111;28;20040;-78
2021/04/19 12:18:53;;;;;;;13.85;12.45;;;20.20;48.80;;;;;;5072190;28;20115;-79
2021/04/19 12:21:19;;;;;;;13.70;12.23;;;20.20;48.60;;;;;;5060312;28;20552;-82
2021/04/19 12:23:44;;;;;;;13.95;12.55;;;20.20;48.20;;;;;;5073788;28;20067;-82
2021/04/19 12:26:10;;;;;;;14.38;12.32;;;20.30;47.90;;;;;;5059011;28;20469;-81
2021/04/19 12:28:36;;;;;;;13.82;12.43;;;20.40;47.50;;;;;;5093818;28;20079;-82
2021/04/19 12:31:02;;;;;;;12.77;11.57;;;20.50;47.30;;;;;;5058180;28;20565;-82
2021/04/19 12:33:28;;;;;;;13.35;12.05;;;20.50;47.00;;;;;;5093540;28;20036;-81
2021/04/19 12:35:53;;;;;;;14.05;12.70;;;20.60;46.70;;;;;;5050492;28;20079;-82
2021/04/19 12:38:19;;;;;;;13.70;12.35;;;20.70;46.30;;;;;;5057544;28;20047;-80
2021/04/19 12:40:45;;;;;;;12.75;11.35;;;20.90;46.40;;;;;;5074366;28;20036;-79
2021/04/19 12:43:11;;;;;;;15.77;14.13;;;20.90;46.10;;;;;;5037459;28;20033;-80